createdAt,value
2023-02-15T00:02:04.457Z,4.00
2023-02-15T00:04:47.058Z,4.00
2023-02-15T00:07:19.699Z,4.00
2023-02-15T00:09:50.923Z,3.97
2023-02-15T00:12:20.989Z,3.94
2023-02-15T00:14:54.256Z,3.90
2023-02-15T00:17:25.220Z,3.87
2023-02-15T00:19:55.539Z,3.83
2023-02-15T00:22:25.892Z,3.82
2023-02-15T00:24:56.181Z,3.85
2023-02-15T00:27:27.113Z,3.80
2023-02-15T00:30:00.137Z,3.79
2023-02-15T00:32:30.521Z,3.77
2023-02-15T00:35:00.778Z,3.74
2023-02-15T00:37:31.035Z,3.72
2023-02-15T00:40:01.397Z,3.72
2023-02-15T00:42:31.709Z,3.74
2023-02-15T00:45:04.666Z,3.71
2023-02-15T00:47:36.136Z,3.71
2023-02-15T00:50:07.006Z,3.72
2023-02-15T00:52:37.392Z,3.72
2023-02-15T00:55:08.690Z,3.71
2023-02-15T00:57:39.025Z,3.70
2023-02-15T01:00:14.094Z,3.66
2023-02-15T01:02:44.433Z,3.65
2023-02-15T01:05:14.813Z,3.63
2023-02-15T01:07:45.152Z,3.61
2023-02-15T01:10:15.457Z,3.58
2023-02-15T01:12:45.841Z,3.57
2023-02-15T01:15:18.777Z,3.56
2023-02-15T01:17:53.654Z,3.55
2023-02-15T01:20:28.029Z,3.54
2023-02-15T01:22:59.113Z,3.57
2023-02-15T01:25:29.949Z,3.55
2023-02-15T01:28:00.416Z,3.54
2023-02-15T01:30:33.529Z,3.51
2023-02-15T01:33:04.592Z,3.52
2023-02-15T01:35:35.192Z,3.45
2023-02-15T01:38:05.669Z,3.43
2023-02-15T01:40:35.889Z,3.43
2023-02-15T01:43:06.297Z,3.43
2023-02-15T01:45:39.988Z,3.44
2023-02-15T01:48:24.999Z,3.40
2023-02-15T01:50:59.908Z,3.40
2023-02-15T01:53:36.066Z,3.39
2023-02-15T01:56:11.852Z,3.28
2023-02-15T01:58:42.944Z,3.25
2023-02-15T02:01:16.104Z,3.23
2023-02-15T02:04:02.682Z,3.24
2023-02-15T02:06:36.794Z,3.25
2023-02-15T02:09:07.530Z,3.22
2023-02-15T02:11:39.016Z,3.18
2023-02-15T02:14:09.546Z,3.17
2023-02-15T02:16:56.794Z,3.14
2023-02-15T02:19:57.198Z,3.12
2023-02-15T02:23:09.897Z,3.13
2023-02-15T02:26:21.426Z,3.11
2023-02-15T02:29:38.309Z,3.09
2023-02-15T02:33:03.687Z,3.02
2023-02-15T02:35:42.755Z,2.98
2023-02-15T02:38:24.125Z,2.95
2023-02-15T02:41:06.512Z,2.97
2023-02-15T02:43:42.479Z,2.96
2023-02-15T02:46:21.829Z,2.93
2023-02-15T02:48:55.518Z,2.94
2023-02-15T02:51:25.890Z,2.95
2023-02-15T02:54:00.398Z,2.95
2023-02-15T02:56:34.773Z,2.93
2023-02-15T02:59:10.165Z,2.86
2023-02-15T03:01:46.564Z,2.82
2023-02-15T03:04:23.959Z,2.78
2023-02-15T03:06:59.275Z,2.79
2023-02-15T03:09:35.835Z,2.80
2023-02-15T03:12:07.154Z,2.79
2023-02-15T03:14:43.104Z,2.78
2023-02-15T03:17:16.327Z,2.81
2023-02-15T03:19:51.738Z,2.76
2023-02-15T03:22:27.368Z,2.76
2023-02-15T03:25:05.378Z,2.80
2023-02-15T03:27:41.992Z,2.79
2023-02-15T03:30:16.205Z,2.81
2023-02-15T03:32:49.024Z,2.78
2023-02-15T03:35:26.316Z,2.74
2023-02-15T03:38:01.729Z,2.71
2023-02-15T03:40:49.159Z,2.67
2023-02-15T03:43:27.097Z,2.63
2023-02-15T03:46:05.528Z,2.61
2023-02-15T03:48:41.618Z,2.61
2023-02-15T03:51:34.096Z,2.62
2023-02-15T03:54:07.197Z,2.58
2023-02-15T03:56:39.755Z,2.60
2023-02-15T03:59:23.625Z,2.61
2023-02-15T04:02:11.395Z,2.60
2023-02-15T04:04:45.774Z,2.54
2023-02-15T04:07:18.874Z,2.50
2023-02-15T04:10:01.606Z,2.43
2023-02-15T04:12:31.879Z,2.40
2023-02-15T04:15:14.554Z,2.38
2023-02-15T04:17:44.862Z,2.35
2023-02-15T04:20:28.072Z,2.37
2023-02-15T04:23:13.336Z,2.40
2023-02-15T04:25:43.651Z,2.40
2023-02-15T04:28:13.870Z,2.44
2023-02-15T04:30:44.178Z,2.40
2023-02-15T04:33:14.495Z,2.41
2023-02-15T04:35:46.075Z,2.41
2023-02-15T04:38:18.989Z,2.41
2023-02-15T04:40:53.611Z,2.37
2023-02-15T04:43:24.103Z,2.33
2023-02-15T04:45:55.192Z,2.30
2023-02-15T04:48:25.572Z,2.27
2023-02-15T04:50:55.815Z,2.25
2023-02-15T04:53:28.726Z,2.24
2023-02-15T04:55:59.417Z,2.24
2023-02-15T04:58:29.863Z,2.20
2023-02-15T05:01:01.632Z,2.17
2023-02-15T05:03:31.972Z,2.18
2023-02-15T05:06:02.676Z,2.16
2023-02-15T05:08:36.172Z,2.14
2023-02-15T05:11:06.493Z,2.13
2023-02-15T05:13:36.772Z,2.13
2023-02-15T05:16:08.074Z,2.10
2023-02-15T05:18:38.399Z,2.09
2023-02-15T05:21:08.709Z,2.05
2023-02-15T05:23:41.632Z,2.02
2023-02-15T05:26:35.359Z,2.01
2023-02-15T05:29:06.001Z,2.01
2023-02-15T05:31:37.053Z,2.03
2023-02-15T05:34:07.366Z,2.03
2023-02-15T05:36:37.710Z,2.02
2023-02-15T05:39:10.686Z,2.03
2023-02-15T05:41:41.082Z,2.01
2023-02-15T05:44:11.381Z,1.99
2023-02-15T05:46:41.736Z,1.99
2023-02-15T05:49:12.097Z,1.95
2023-02-15T05:51:42.476Z,1.94
2023-02-15T05:54:15.358Z,1.94
2023-02-15T05:56:45.766Z,1.93
2023-02-15T05:59:16.607Z,1.90
2023-02-15T06:01:47.019Z,1.88
2023-02-15T06:04:17.387Z,1.89
2023-02-15T06:06:47.755Z,1.91
2023-02-15T06:09:21.531Z,1.95
2023-02-15T06:11:51.834Z,1.91
2023-02-15T06:14:22.292Z,1.95
2023-02-15T06:16:52.677Z,1.95
2023-02-15T06:19:23.777Z,1.92
2023-02-15T06:21:54.851Z,1.92
2023-02-15T06:24:27.992Z,1.88
2023-02-15T06:26:58.409Z,1.89
2023-02-15T06:29:28.869Z,1.91
2023-02-15T06:31:59.291Z,1.91
2023-02-15T06:34:29.710Z,1.94
2023-02-15T06:37:00.145Z,1.96
2023-02-15T06:39:33.180Z,1.99
2023-02-15T06:42:03.554Z,2.01
2023-02-15T06:44:33.930Z,2.04
2023-02-15T06:47:04.237Z,2.07
2023-02-15T06:49:34.855Z,2.08
2023-02-15T06:52:05.190Z,2.12
2023-02-15T06:54:38.132Z,2.19
2023-02-15T06:57:08.552Z,2.29
2023-02-15T06:59:38.979Z,2.39
2023-02-15T07:02:09.569Z,2.46
2023-02-15T07:04:40.338Z,2.59
2023-02-15T07:07:13.988Z,2.72
2023-02-15T07:09:46.872Z,2.87
2023-02-15T07:12:29.621Z,3.11
2023-02-15T07:14:59.900Z,3.24
2023-02-15T07:17:35.915Z,3.41
2023-02-15T07:20:09.472Z,3.64
2023-02-15T07:22:40.271Z,3.88
2023-02-15T07:25:15.434Z,4.11
2023-02-15T07:27:46.052Z,4.32
2023-02-15T07:30:20.332Z,4.42
2023-02-15T07:33:05.238Z,4.69
2023-02-15T07:35:36.243Z,4.87
2023-02-15T07:38:06.611Z,4.97
2023-02-15T07:40:39.534Z,5.23
2023-02-15T07:43:09.872Z,5.89
2023-02-15T07:45:40.406Z,6.11
2023-02-15T07:48:11.428Z,6.26
2023-02-15T07:50:41.824Z,6.38
2023-02-15T07:53:12.223Z,6.67
2023-02-15T07:55:45.217Z,7.90
2023-02-15T07:58:15.522Z,8.56
2023-02-15T08:01:02.849Z,9.95
2023-02-15T08:03:33.308Z,9.40
2023-02-15T08:06:04.294Z,9.74
2023-02-15T08:08:34.501Z,10.18
2023-02-15T08:11:23.060Z,9.90
2023-02-15T08:14:00.493Z,9.79
2023-02-15T08:16:35.067Z,10.09
2023-02-15T08:19:08.220Z,10.81
2023-02-15T08:21:42.518Z,11.09
2023-02-15T08:24:14.533Z,11.17
2023-02-15T08:26:48.856Z,11.61
2023-02-15T08:29:22.403Z,12.19
2023-02-15T08:31:53.320Z,12.83
2023-02-15T08:34:24.302Z,13.28
2023-02-15T08:36:55.104Z,13.36
2023-02-15T08:39:25.827Z,13.94
2023-02-15T08:41:59.129Z,14.66
2023-02-15T08:44:30.256Z,15.54
2023-02-15T08:47:05.082Z,16.85
2023-02-15T08:49:36.031Z,18.06
2023-02-15T08:52:06.068Z,18.88
2023-02-15T08:54:36.557Z,19.29
2023-02-15T08:57:10.752Z,19.59
2023-02-15T08:59:41.139Z,20.00
2023-02-15T09:02:14.581Z,20.24
2023-02-15T09:04:45.018Z,19.40
2023-02-15T09:07:15.491Z,18.18
2023-02-15T09:09:46.548Z,17.26
2023-02-15T09:12:19.654Z,17.54
2023-02-15T09:14:50.083Z,18.91
2023-02-15T09:17:20.489Z,19.81
2023-02-15T09:19:50.892Z,20.30
2023-02-15T09:22:21.240Z,20.15
2023-02-15T09:24:51.643Z,20.36
2023-02-15T09:27:24.585Z,20.62
2023-02-15T09:29:55.136Z,20.79
2023-02-15T09:32:25.630Z,20.89
2023-02-15T09:34:56.064Z,20.71
2023-02-15T09:37:26.555Z,20.99
2023-02-15T09:39:56.953Z,21.38
2023-02-15T09:42:48.368Z,21.35
2023-02-15T09:45:32.555Z,21.20
2023-02-15T09:48:48.855Z,21.43
2023-02-15T09:51:46.991Z,21.26
2023-02-15T09:54:37.703Z,20.89
2023-02-15T09:57:18.555Z,20.94
2023-02-15T10:00:05.277Z,20.81
2023-02-15T10:03:08.773Z,20.54
2023-02-15T10:05:53.116Z,20.79
2023-02-15T10:09:02.397Z,20.99
2023-02-15T10:11:55.214Z,20.91
2023-02-15T10:15:08.340Z,20.75
2023-02-15T10:18:00.395Z,20.67
2023-02-15T10:20:43.277Z,21.07
2023-02-15T10:23:35.236Z,21.06
2023-02-15T10:26:17.017Z,21.18
2023-02-15T10:28:53.094Z,21.32
2023-02-15T10:31:43.826Z,21.04
2023-02-15T10:34:20.059Z,21.32
2023-02-15T10:37:19.685Z,21.66
2023-02-15T10:40:03.248Z,22.04
2023-02-15T10:42:45.418Z,22.16
2023-02-15T10:45:29.805Z,22.33
2023-02-15T10:48:28.960Z,22.28
2023-02-15T10:51:03.487Z,22.19
2023-02-15T10:53:51.042Z,22.14
2023-02-15T10:56:29.532Z,22.29
2023-02-15T10:59:37.522Z,22.77
2023-02-15T11:02:23.333Z,22.95
2023-02-15T11:05:07.950Z,23.09
2023-02-15T11:07:44.987Z,23.37
2023-02-15T11:10:32.526Z,23.83
2023-02-15T11:13:11.918Z,24.14
2023-02-15T11:15:48.294Z,24.69
2023-02-15T11:18:29.117Z,25.12
2023-02-15T11:21:06.613Z,25.93
2023-02-15T11:23:45.679Z,26.56
2023-02-15T11:26:21.071Z,27.35
2023-02-15T11:28:58.116Z,27.82
2023-02-15T11:31:39.037Z,28.39
2023-02-15T11:34:17.900Z,28.97
2023-02-15T11:36:54.229Z,29.61
2023-02-15T11:39:25.807Z,30.29
2023-02-15T11:42:01.269Z,30.96
2023-02-15T11:44:36.999Z,31.38
2023-02-15T11:47:11.561Z,31.43
2023-02-15T11:49:43.337Z,31.75
2023-02-15T11:52:20.554Z,31.98
2023-02-15T11:54:54.011Z,32.33
2023-02-15T11:57:29.383Z,32.62
2023-02-15T12:00:08.734Z,33.07
2023-02-15T12:02:41.452Z,33.46
2023-02-15T12:05:20.157Z,33.23
2023-02-15T12:07:59.379Z,33.38
2023-02-15T12:10:35.014Z,33.41
2023-02-15T12:13:15.689Z,33.80
2023-02-15T12:15:49.938Z,34.04
2023-02-15T12:18:39.979Z,34.48
2023-02-15T12:21:14.776Z,34.42
2023-02-15T12:23:58.766Z,34.80
2023-02-15T12:26:32.054Z,35.21
2023-02-15T12:29:05.406Z,35.63
2023-02-15T12:31:41.098Z,35.93
2023-02-15T12:34:25.617Z,35.85
2023-02-15T12:36:59.178Z,36.48
2023-02-15T12:39:33.748Z,36.81
2023-02-15T12:42:08.436Z,37.58
2023-02-15T12:44:40.451Z,37.82
2023-02-15T12:47:28.994Z,37.54
2023-02-15T12:50:20.438Z,37.68
2023-02-15T12:52:53.519Z,38.09
2023-02-15T12:55:31.859Z,38.44
2023-02-15T12:58:17.744Z,38.69
2023-02-15T13:00:48.746Z,38.63
2023-02-15T13:03:22.976Z,38.92
2023-02-15T13:05:56.211Z,38.00
2023-02-15T13:08:34.410Z,37.82
2023-02-15T13:11:11.150Z,37.52
2023-02-15T13:13:55.890Z,36.00
2023-02-15T13:16:35.146Z,35.91
2023-02-15T13:19:13.139Z,35.51
2023-02-15T13:21:48.455Z,35.81
2023-02-15T13:24:27.004Z,35.62
2023-02-15T13:27:14.638Z,33.94
2023-02-15T13:29:49.016Z,32.06
2023-02-15T13:32:31.416Z,29.21
2023-02-15T13:35:06.431Z,27.42
2023-02-15T13:38:07.618Z,26.83
2023-02-15T13:40:47.885Z,26.51
2023-02-15T13:43:34.437Z,26.89
2023-02-15T13:46:23.609Z,27.18
2023-02-15T13:49:12.251Z,26.99
2023-02-15T13:51:50.459Z,26.84
2023-02-15T13:54:45.734Z,27.19
2023-02-15T13:57:48.424Z,28.06
2023-02-15T14:00:28.243Z,28.48
2023-02-15T14:03:39.489Z,28.42
2023-02-15T14:06:37.515Z,28.02
2023-02-15T14:09:24.266Z,27.41
2023-02-15T14:12:03.913Z,26.59
2023-02-15T14:15:11.452Z,26.15
2023-02-15T14:17:59.022Z,25.44
2023-02-15T14:20:43.791Z,24.44
2023-02-15T14:23:30.680Z,23.53
2023-02-15T14:26:06.528Z,23.17
2023-02-15T14:28:47.852Z,23.07
2023-02-15T14:31:19.797Z,22.39
2023-02-15T14:33:59.771Z,21.79
2023-02-15T14:36:33.448Z,21.35
2023-02-15T14:39:39.402Z,21.30
2023-02-15T14:42:18.360Z,21.79
2023-02-15T14:44:59.270Z,21.30
2023-02-15T14:47:36.410Z,20.84
2023-02-15T14:50:44.810Z,20.74
2023-02-15T14:53:39.511Z,20.31
2023-02-15T14:56:23.811Z,20.48
2023-02-15T14:59:18.239Z,20.68
2023-02-15T15:02:00.819Z,20.76
2023-02-15T15:04:38.785Z,20.47
2023-02-15T15:07:28.324Z,20.61
2023-02-15T15:10:16.914Z,20.80
2023-02-15T15:12:48.134Z,20.79
2023-02-15T15:15:40.492Z,20.70
2023-02-15T15:18:12.196Z,20.47
2023-02-15T15:20:50.902Z,19.74
2023-02-15T15:23:46.828Z,18.45
2023-02-15T15:26:34.355Z,17.76
2023-02-15T15:29:08.186Z,17.53
2023-02-15T15:31:52.283Z,16.66
2023-02-15T15:35:10.751Z,16.00
2023-02-15T15:38:23.677Z,15.53
2023-02-15T15:41:30.347Z,15.26
2023-02-15T15:44:46.588Z,14.90
2023-02-15T15:48:01.954Z,14.48
2023-02-15T15:50:38.322Z,14.43
2023-02-15T15:53:09.040Z,14.39
2023-02-15T15:55:40.592Z,14.41
2023-02-15T15:58:21.165Z,14.19
2023-02-15T16:00:54.927Z,14.02
2023-02-15T16:03:27.538Z,13.88
2023-02-15T16:06:01.754Z,13.92
2023-02-15T16:08:36.168Z,14.02
2023-02-15T16:11:15.791Z,13.95
2023-02-15T16:13:49.078Z,14.07
2023-02-15T16:16:26.581Z,13.99
2023-02-15T16:18:58.831Z,14.07
2023-02-15T16:21:34.247Z,13.96
2023-02-15T16:24:25.223Z,13.85
2023-02-15T16:27:27.504Z,13.75
2023-02-15T16:30:00.569Z,13.68
2023-02-15T16:32:32.704Z,13.62
2023-02-15T16:35:06.256Z,13.51
2023-02-15T16:37:38.823Z,13.43
2023-02-15T16:40:15.889Z,13.38
2023-02-15T16:42:46.432Z,13.29
2023-02-15T16:45:24.029Z,13.26
2023-02-15T16:47:59.329Z,13.20
2023-02-15T16:50:36.314Z,13.05
2023-02-15T16:53:11.438Z,12.99
2023-02-15T16:55:45.380Z,12.86
2023-02-15T16:58:20.259Z,12.75
2023-02-15T17:00:53.346Z,12.73
2023-02-15T17:03:28.957Z,12.76
2023-02-15T17:06:02.020Z,12.75
2023-02-15T17:08:38.138Z,12.75
2023-02-15T17:11:21.334Z,12.74
2023-02-15T17:14:16.256Z,12.56
2023-02-15T17:16:52.830Z,12.37
2023-02-15T17:19:27.850Z,12.34
2023-02-15T17:22:00.591Z,12.31
2023-02-15T17:24:40.248Z,12.16
2023-02-15T17:27:18.798Z,12.01
2023-02-15T17:29:53.022Z,11.74
2023-02-15T17:32:31.035Z,11.61
2023-02-15T17:35:10.097Z,11.64
2023-02-15T17:37:50.231Z,11.59
2023-02-15T17:40:27.749Z,11.67
2023-02-15T17:42:58.789Z,11.54
2023-02-15T17:45:33.123Z,11.34
2023-02-15T17:48:16.658Z,11.13
2023-02-15T17:50:47.060Z,11.03
2023-02-15T17:53:22.669Z,11.05
2023-02-15T17:55:53.055Z,11.03
2023-02-15T17:58:24.978Z,11.02
2023-02-15T18:01:12.265Z,11.04
2023-02-15T18:04:01.234Z,10.99
2023-02-15T18:06:44.238Z,10.98
2023-02-15T18:09:28.642Z,10.93
2023-02-15T18:11:59.014Z,10.90
2023-02-15T18:14:31.848Z,10.90
2023-02-15T18:17:02.257Z,10.83
2023-02-15T18:19:36.177Z,10.80
2023-02-15T18:22:09.095Z,10.77
2023-02-15T18:24:39.516Z,10.58
2023-02-15T18:27:10.395Z,10.43
2023-02-15T18:29:40.818Z,10.36
2023-02-15T18:32:16.414Z,10.39
2023-02-15T18:34:52.394Z,10.49
2023-02-15T18:37:25.327Z,10.41
2023-02-15T18:39:57.038Z,10.39
2023-02-15T18:42:31.600Z,10.39
2023-02-15T18:45:05.567Z,10.38
2023-02-15T18:47:35.991Z,10.38
2023-02-15T18:50:10.651Z,10.36
2023-02-15T18:52:41.964Z,10.42
2023-02-15T18:55:21.720Z,10.38
2023-02-15T18:57:54.918Z,10.33
2023-02-15T19:00:28.451Z,10.32
2023-02-15T19:02:59.508Z,10.32
2023-02-15T19:05:33.615Z,10.32
2023-02-15T19:08:05.864Z,10.39
2023-02-15T19:10:36.953Z,10.33
2023-02-15T19:13:07.050Z,10.27
2023-02-15T19:15:37.426Z,10.22
2023-02-15T19:18:08.801Z,10.15
2023-02-15T19:20:45.894Z,10.15
2023-02-15T19:23:21.287Z,10.13
2023-02-15T19:25:53.278Z,10.08
2023-02-15T19:28:32.523Z,10.01
2023-02-15T19:31:03.110Z,9.91
2023-02-15T19:33:34.845Z,9.87
2023-02-15T19:36:12.313Z,9.92
2023-02-15T19:38:42.954Z,9.86
2023-02-15T19:41:25.326Z,9.89
2023-02-15T19:43:58.081Z,9.91
2023-02-15T19:46:29.768Z,9.86
2023-02-15T19:49:00.167Z,9.70
2023-02-15T19:51:34.234Z,9.69
2023-02-15T19:54:04.689Z,9.63
2023-02-15T19:56:35.223Z,9.65
2023-02-15T19:59:05.659Z,9.63
2023-02-15T20:01:36.109Z,9.62
2023-02-15T20:04:06.772Z,9.68
2023-02-15T20:06:39.784Z,9.66
2023-02-15T20:09:10.355Z,9.62
2023-02-15T20:11:40.813Z,9.63
2023-02-15T20:14:16.155Z,9.63
2023-02-15T20:16:46.767Z,9.70
2023-02-15T20:19:17.414Z,9.72
2023-02-15T20:21:55.085Z,9.71
2023-02-15T20:24:28.109Z,9.65
2023-02-15T20:26:58.566Z,9.60
2023-02-15T20:29:29.028Z,9.65
2023-02-15T20:32:01.558Z,9.56
2023-02-15T20:34:32.073Z,9.48
2023-02-15T20:37:05.217Z,9.41
2023-02-15T20:39:37.314Z,9.34
2023-02-15T20:42:08.066Z,9.23
2023-02-15T20:44:39.508Z,9.16
2023-02-15T20:47:10.349Z,9.18
2023-02-15T20:49:40.750Z,9.20
2023-02-15T20:52:22.830Z,9.15
2023-02-15T20:54:53.223Z,9.16
2023-02-15T20:57:23.595Z,9.23
2023-02-15T20:59:54.086Z,9.27
2023-02-15T21:02:26.051Z,9.29
2023-02-15T21:04:56.364Z,9.35
2023-02-15T21:07:29.312Z,9.48
2023-02-15T21:10:00.407Z,9.47
2023-02-15T21:12:30.905Z,9.31
2023-02-15T21:15:01.345Z,9.26
2023-02-15T21:17:31.872Z,9.14
2023-02-15T21:20:02.297Z,9.06
2023-02-15T21:22:41.128Z,9.04
2023-02-15T21:25:18.641Z,9.04
2023-02-15T21:27:48.977Z,9.05
2023-02-15T21:30:22.489Z,9.02
2023-02-15T21:32:53.355Z,9.11
2023-02-15T21:35:24.915Z,9.17
2023-02-15T21:37:58.026Z,9.16
2023-02-15T21:40:32.071Z,9.12
2023-02-15T21:43:14.990Z,9.08
2023-02-15T21:45:58.323Z,9.05
2023-02-15T21:48:31.790Z,9.07
2023-02-15T21:51:14.658Z,9.01
2023-02-15T21:53:49.617Z,8.96
2023-02-15T21:56:24.480Z,8.97
2023-02-15T21:58:55.039Z,9.02
2023-02-15T22:01:28.307Z,9.03
2023-02-15T22:04:01.250Z,9.08
2023-02-15T22:06:31.746Z,9.07
2023-02-15T22:09:04.833Z,8.96
2023-02-15T22:11:35.196Z,8.85
2023-02-15T22:14:05.551Z,8.86
2023-02-15T22:16:35.949Z,8.82
2023-02-15T22:19:06.369Z,8.79
2023-02-15T22:21:36.747Z,8.75
2023-02-15T22:24:10.153Z,8.75
2023-02-15T22:26:40.587Z,8.72
2023-02-15T22:29:17.146Z,8.70
2023-02-15T22:31:49.344Z,8.65
2023-02-15T22:34:29.709Z,8.63
2023-02-15T22:37:03.320Z,8.61
2023-02-15T22:39:36.306Z,8.59
2023-02-15T22:42:07.066Z,8.61
2023-02-15T22:44:38.396Z,8.65
2023-02-15T22:47:08.966Z,8.60
2023-02-15T22:49:39.379Z,8.56
2023-02-15T22:52:13.331Z,8.49
2023-02-15T22:54:46.225Z,8.40
2023-02-15T22:57:22.691Z,8.31
2023-02-15T22:59:53.162Z,8.30
2023-02-15T23:02:23.563Z,8.23
2023-02-15T23:04:54.001Z,8.20
2023-02-15T23:07:24.504Z,8.14
2023-02-15T23:09:57.509Z,8.03
2023-02-15T23:12:51.785Z,7.95
2023-02-15T23:15:22.307Z,7.94
2023-02-15T23:17:52.649Z,7.96
2023-02-15T23:20:23.037Z,8.05
2023-02-15T23:22:53.497Z,8.04
2023-02-15T23:25:28.177Z,8.06
2023-02-15T23:28:01.105Z,8.01
2023-02-15T23:30:31.482Z,7.91
2023-02-15T23:33:01.895Z,7.83
2023-02-15T23:35:32.186Z,7.81
2023-02-15T23:38:02.472Z,7.74
2023-02-15T23:40:47.812Z,7.66
2023-02-15T23:43:25.337Z,7.67
2023-02-15T23:45:55.685Z,7.67
2023-02-15T23:48:33.999Z,7.65
2023-02-15T23:51:05.115Z,7.63
2023-02-15T23:53:36.485Z,7.52
2023-02-15T23:56:10.068Z,7.45
2023-02-15T23:58:45.385Z,7.38
